createdAt,value
2023-07-21T00:01:51.787Z,100099.00
2023-07-21T00:04:56.072Z,100091.63
2023-07-21T00:07:58.736Z,100096.16
2023-07-21T00:11:01.562Z,100090.75
2023-07-21T00:14:04.250Z,100100.34
2023-07-21T00:17:07.432Z,100089.56
2023-07-21T00:20:12.602Z,100097.97
2023-07-21T00:23:16.117Z,100094.09
2023-07-21T00:26:19.308Z,100103.13
2023-07-21T00:29:22.080Z,100100.03
2023-07-21T00:32:24.835Z,100096.97
2023-07-21T00:35:27.864Z,100102.59
2023-07-21T00:38:31.151Z,100107.94
2023-07-21T00:41:34.880Z,100100.94
2023-07-21T00:44:38.373Z,100099.69
2023-07-21T00:47:42.497Z,100100.09
2023-07-21T00:50:51.193Z,100099.59
2023-07-21T00:53:54.531Z,100099.81
2023-07-21T00:56:58.620Z,100097.66
2023-07-21T01:00:09.183Z,100099.63
2023-07-21T01:03:13.572Z,100106.88
2023-07-21T01:06:18.156Z,100108.31
2023-07-21T01:09:23.395Z,100099.09
2023-07-21T01:12:27.553Z,100104.25
2023-07-21T01:15:32.288Z,100090.66
2023-07-21T01:18:56.313Z,100093.56
2023-07-21T01:22:04.962Z,100097.00
2023-07-21T01:25:08.723Z,100096.47
2023-07-21T01:28:13.461Z,100091.91
2023-07-21T01:31:18.725Z,100092.09
2023-07-21T01:34:23.465Z,100088.63
2023-07-21T01:37:26.838Z,100092.78
2023-07-21T01:40:31.870Z,100094.16
2023-07-21T01:43:35.916Z,100100.19
2023-07-21T01:46:38.810Z,100093.63
2023-07-21T01:49:41.811Z,100096.31
2023-07-21T01:52:46.778Z,100097.25
2023-07-21T01:56:01.617Z,100095.66
2023-07-21T01:59:08.543Z,100098.28
2023-07-21T02:02:12.224Z,100111.03
2023-07-21T02:05:27.423Z,100108.28
2023-07-21T02:08:31.312Z,100114.38
2023-07-21T02:11:34.868Z,100115.16
2023-07-21T02:14:52.082Z,100122.38
2023-07-21T02:17:55.401Z,100130.41
2023-07-21T02:21:03.920Z,100124.59
2023-07-21T02:24:07.250Z,100134.84
2023-07-21T02:27:11.150Z,100138.81
2023-07-21T02:30:17.965Z,100144.47
2023-07-21T02:33:22.140Z,100140.28
2023-07-21T02:36:25.621Z,100136.81
2023-07-21T02:39:28.847Z,100142.44
2023-07-21T02:42:32.233Z,100150.22
2023-07-21T02:45:35.423Z,100145.97
2023-07-21T02:48:38.883Z,100150.94
2023-07-21T02:51:42.166Z,100147.81
2023-07-21T02:54:45.607Z,100151.59
2023-07-21T02:57:48.626Z,100153.19
2023-07-21T03:00:58.045Z,100160.50
2023-07-21T03:04:09.189Z,100161.00
2023-07-21T03:07:24.072Z,100161.78
2023-07-21T03:10:36.088Z,100155.53
2023-07-21T03:13:39.516Z,100154.53
2023-07-21T03:16:44.448Z,100159.28
2023-07-21T03:19:49.291Z,100156.22
2023-07-21T03:22:53.209Z,100161.78
2023-07-21T03:25:56.133Z,100159.06
2023-07-21T03:28:59.983Z,100158.44
2023-07-21T03:32:05.758Z,100162.72
2023-07-21T03:35:12.347Z,100161.41
2023-07-21T03:38:15.803Z,100154.13
2023-07-21T03:41:18.858Z,100158.72
2023-07-21T03:44:21.591Z,100155.34
2023-07-21T03:47:24.875Z,100157.28
2023-07-21T03:50:33.220Z,100151.06
2023-07-21T03:53:37.706Z,100159.38
2023-07-21T03:56:44.037Z,100169.00
2023-07-21T03:59:51.885Z,100174.09
2023-07-21T04:02:55.748Z,100176.50
2023-07-21T04:06:05.161Z,100183.97
2023-07-21T04:09:07.829Z,100184.03
2023-07-21T04:12:11.546Z,100180.16
2023-07-21T04:15:16.349Z,100177.47
2023-07-21T04:18:20.200Z,100176.84
2023-07-21T04:21:23.704Z,100173.22
2023-07-21T04:24:27.167Z,100192.66
2023-07-21T04:27:32.976Z,100194.22
2023-07-21T04:30:35.663Z,100190.88
2023-07-21T04:33:39.225Z,100177.63
2023-07-21T04:36:42.138Z,100185.97
2023-07-21T04:40:00.035Z,100185.81
2023-07-21T04:43:02.737Z,100187.03
2023-07-21T04:46:05.398Z,100195.03
2023-07-21T04:49:14.902Z,100178.75
2023-07-21T04:52:22.894Z,100178.91
2023-07-21T04:55:28.204Z,100165.94
2023-07-21T04:58:32.049Z,100155.88
2023-07-21T05:01:35.515Z,100144.66
2023-07-21T05:04:38.572Z,100145.28
2023-07-21T05:07:44.417Z,100148.88
2023-07-21T05:10:48.037Z,100156.81
2023-07-21T05:13:54.129Z,100159.59
2023-07-21T05:17:07.638Z,100171.50
2023-07-21T05:20:48.941Z,100155.69
2023-07-21T05:24:01.668Z,100151.78
2023-07-21T05:27:04.701Z,100151.75
2023-07-21T05:30:23.206Z,100169.66
2023-07-21T05:33:29.927Z,100175.88
2023-07-21T05:36:35.867Z,100181.75
2023-07-21T05:39:38.508Z,100190.56
2023-07-21T05:42:41.122Z,100196.19
2023-07-21T05:45:43.960Z,100200.31
2023-07-21T05:48:46.649Z,100192.72
2023-07-21T05:51:50.400Z,100188.50
2023-07-21T05:55:02.506Z,100191.69
2023-07-21T05:58:09.108Z,100196.47
2023-07-21T06:01:15.442Z,100198.22
2023-07-21T06:04:19.189Z,100191.09
2023-07-21T06:07:29.392Z,100188.06
2023-07-21T06:10:47.077Z,100178.44
2023-07-21T06:14:03.260Z,100175.34
2023-07-21T06:17:30.190Z,100175.00
2023-07-21T06:20:34.710Z,100168.78
2023-07-21T06:23:38.071Z,100169.91
2023-07-21T06:26:41.119Z,100170.28
2023-07-21T06:29:46.881Z,100171.84
2023-07-21T06:32:55.697Z,100170.63
2023-07-21T06:36:20.941Z,100171.41
2023-07-21T06:39:49.389Z,100169.06
2023-07-21T06:43:15.628Z,100165.72
2023-07-21T06:46:29.606Z,100168.00
2023-07-21T06:49:45.178Z,100171.75
2023-07-21T06:52:56.711Z,100167.97
2023-07-21T06:55:59.798Z,100172.34
2023-07-21T06:59:03.033Z,100168.53
2023-07-21T07:02:06.412Z,100161.63
2023-07-21T07:05:09.758Z,100158.38
2023-07-21T07:08:13.796Z,100167.09
2023-07-21T07:11:17.453Z,100148.56
2023-07-21T07:14:20.586Z,100143.56
2023-07-21T07:17:23.201Z,100145.72
2023-07-21T07:20:26.582Z,100138.03
2023-07-21T07:23:29.390Z,100143.88
2023-07-21T07:26:33.264Z,100150.66
2023-07-21T07:29:36.643Z,100144.91
2023-07-21T07:32:39.680Z,100149.19
2023-07-21T07:35:54.423Z,100156.72
2023-07-21T07:38:57.733Z,100156.09
2023-07-21T07:42:01.687Z,100156.81
2023-07-21T07:45:04.879Z,100166.66
2023-07-21T07:48:10.476Z,100174.50
2023-07-21T07:51:13.118Z,100167.19
2023-07-21T07:54:16.841Z,100172.25
2023-07-21T07:57:21.496Z,100178.81
2023-07-21T08:00:27.190Z,100184.13
2023-07-21T08:03:30.904Z,100177.88
2023-07-21T08:06:33.727Z,100168.94
2023-07-21T08:09:37.957Z,100168.34
2023-07-21T08:12:40.390Z,100167.44
2023-07-21T08:15:44.984Z,100159.22
2023-07-21T08:18:47.655Z,100158.25
2023-07-21T08:21:51.206Z,100166.09
2023-07-21T08:24:57.028Z,100167.72
2023-07-21T08:28:04.700Z,100156.19
2023-07-21T08:31:07.453Z,100160.13
2023-07-21T08:34:11.466Z,100163.75
2023-07-21T08:37:13.970Z,100158.47
2023-07-21T08:40:17.584Z,100163.66
2023-07-21T08:43:21.163Z,100164.91
2023-07-21T08:46:25.700Z,100162.34
2023-07-21T08:49:31.441Z,100163.94
2023-07-21T08:52:34.271Z,100157.13
2023-07-21T08:55:37.146Z,100151.22
2023-07-21T08:58:39.834Z,100157.91
2023-07-21T09:01:44.948Z,100152.84
2023-07-21T09:04:48.669Z,100153.00
2023-07-21T09:07:51.297Z,100151.34
2023-07-21T09:10:59.062Z,100150.81
2023-07-21T09:14:01.935Z,100157.94
2023-07-21T09:17:13.013Z,100151.72
2023-07-21T09:20:15.902Z,100147.88
2023-07-21T09:23:24.987Z,100146.00
2023-07-21T09:26:27.900Z,100154.59
2023-07-21T09:29:31.439Z,100155.91
2023-07-21T09:32:41.609Z,100148.84
2023-07-21T09:35:44.346Z,100147.84
2023-07-21T09:38:47.193Z,100146.09
2023-07-21T09:41:52.598Z,100147.78
2023-07-21T09:44:56.987Z,100147.75
2023-07-21T09:48:00.611Z,100135.38
2023-07-21T09:51:09.009Z,100136.81
2023-07-21T09:54:18.050Z,100133.94
2023-07-21T09:57:23.604Z,100138.09
2023-07-21T10:00:30.031Z,100140.53
2023-07-21T10:03:34.803Z,100148.38
2023-07-21T10:06:38.437Z,100137.41
2023-07-21T10:09:41.806Z,100140.66
2023-07-21T10:12:56.227Z,100135.69
2023-07-21T10:16:22.697Z,100134.63
2023-07-21T10:19:28.867Z,100135.81
2023-07-21T10:22:32.099Z,100127.53
2023-07-21T10:25:49.950Z,100122.56
2023-07-21T10:28:55.768Z,100106.13
2023-07-21T10:32:01.037Z,100104.00
2023-07-21T10:35:04.000Z,100105.81
2023-07-21T10:38:16.933Z,100111.88
2023-07-21T10:41:20.626Z,100108.84
2023-07-21T10:44:32.377Z,100110.13
2023-07-21T10:47:35.851Z,100111.25
2023-07-21T10:50:42.919Z,100106.63
2023-07-21T10:53:46.074Z,100101.38
2023-07-21T10:56:50.888Z,100102.06
2023-07-21T10:59:55.408Z,100101.47
2023-07-21T11:02:58.658Z,100101.66
2023-07-21T11:06:02.702Z,100103.50
2023-07-21T11:09:06.737Z,100094.59
2023-07-21T11:12:12.057Z,100094.81
2023-07-21T11:15:19.625Z,100083.13
2023-07-21T11:18:23.342Z,100069.97
2023-07-21T11:21:26.177Z,100067.69
2023-07-21T11:24:30.858Z,100059.78
2023-07-21T11:27:34.484Z,100058.38
2023-07-21T11:30:37.094Z,100063.59
2023-07-21T11:33:50.486Z,100059.00
2023-07-21T11:36:59.445Z,100053.88
2023-07-21T11:40:16.583Z,100049.47
2023-07-21T11:43:19.055Z,100056.84
2023-07-21T11:46:27.544Z,100060.06
2023-07-21T11:49:33.766Z,100050.91
2023-07-21T11:52:37.734Z,100041.59
2023-07-21T11:55:40.284Z,100028.44
2023-07-21T11:58:45.481Z,100018.66
2023-07-21T12:01:49.579Z,100013.78
2023-07-21T12:04:54.016Z,100013.88
2023-07-21T12:07:56.575Z,100006.38
2023-07-21T12:11:00.893Z,100007.91
2023-07-21T12:14:04.516Z,100000.41
2023-07-21T12:17:07.604Z,99996.66
2023-07-21T12:20:14.681Z,99994.81
2023-07-21T12:23:17.792Z,99985.75
2023-07-21T12:26:20.796Z,99989.47
2023-07-21T12:29:42.502Z,99988.88
2023-07-21T12:32:46.078Z,99991.13
2023-07-21T12:35:48.967Z,99985.34
2023-07-21T12:38:52.440Z,99986.66
2023-07-21T12:41:57.600Z,99997.84
2023-07-21T12:45:00.251Z,99989.38
2023-07-21T12:48:03.351Z,99988.69
2023-07-21T12:51:05.955Z,99987.59
2023-07-21T12:54:08.937Z,99980.69
2023-07-21T12:57:11.824Z,99976.75
2023-07-21T13:00:14.944Z,99980.28
2023-07-21T13:03:17.681Z,99980.91
2023-07-21T13:06:20.434Z,99987.97
2023-07-21T13:09:25.306Z,99985.28
2023-07-21T13:12:28.325Z,99987.19
2023-07-21T13:15:34.187Z,99990.34
2023-07-21T13:18:38.134Z,99983.84
2023-07-21T13:21:40.999Z,99994.25
2023-07-21T13:24:45.756Z,99993.34
2023-07-21T13:27:51.020Z,99992.94
2023-07-21T13:30:54.563Z,99998.50
2023-07-21T13:33:57.561Z,99996.22
2023-07-21T13:37:00.563Z,99996.31
2023-07-21T13:40:05.666Z,99995.00
2023-07-21T13:43:09.455Z,100011.84
2023-07-21T13:46:12.075Z,100005.66
2023-07-21T13:49:14.989Z,100003.03
2023-07-21T13:52:17.598Z,99995.88
2023-07-21T13:55:20.980Z,100008.78
2023-07-21T13:58:27.337Z,100016.66
2023-07-21T14:01:30.087Z,100022.63
2023-07-21T14:04:34.791Z,100033.19
2023-07-21T14:07:37.483Z,100056.63
2023-07-21T14:10:40.162Z,100064.88
2023-07-21T14:13:43.481Z,100061.91
2023-07-21T14:16:46.431Z,100061.34
2023-07-21T14:19:49.591Z,100059.06
2023-07-21T14:22:52.156Z,100048.91
2023-07-21T14:25:55.736Z,100041.50
2023-07-21T14:28:58.379Z,100026.78
2023-07-21T14:32:01.056Z,100042.03
2023-07-21T14:35:08.325Z,100046.41
2023-07-21T14:38:13.145Z,100056.03
2023-07-21T14:41:16.564Z,100031.13
2023-07-21T14:44:21.214Z,100014.25
2023-07-21T14:47:23.755Z,100002.06
2023-07-21T14:50:26.610Z,100008.22
2023-07-21T14:53:29.639Z,100013.25
2023-07-21T14:56:32.648Z,100014.84
2023-07-21T14:59:35.370Z,100011.66
2023-07-21T15:02:38.337Z,100018.19
2023-07-21T15:05:41.136Z,99996.72
2023-07-21T15:08:44.427Z,99967.25
2023-07-21T15:11:47.759Z,99962.63
2023-07-21T15:14:51.471Z,99953.31
2023-07-21T15:17:55.398Z,99950.91
2023-07-21T15:20:59.631Z,99946.75
2023-07-21T15:24:02.172Z,99942.47
2023-07-21T15:27:08.117Z,99942.56
2023-07-21T15:30:11.229Z,99945.59
2023-07-21T15:33:14.209Z,99937.91
2023-07-21T15:36:18.148Z,99937.59
2023-07-21T15:39:21.297Z,99924.16
2023-07-21T15:42:23.876Z,99913.28
2023-07-21T15:45:27.197Z,99907.44
2023-07-21T15:48:31.509Z,99910.38
2023-07-21T15:51:34.140Z,99915.41
2023-07-21T15:54:36.609Z,99906.88
2023-07-21T15:57:39.972Z,99907.13
2023-07-21T16:01:05.723Z,99906.41
2023-07-21T16:04:10.182Z,99906.75
2023-07-21T16:07:13.426Z,99908.19
2023-07-21T16:10:16.419Z,99907.91
2023-07-21T16:13:19.243Z,99899.47
2023-07-21T16:16:26.199Z,99896.19
2023-07-21T16:19:29.181Z,99884.03
2023-07-21T16:22:31.954Z,99865.44
2023-07-21T16:25:34.438Z,99870.22
2023-07-21T16:28:37.796Z,99864.44
2023-07-21T16:31:43.978Z,99856.00
2023-07-21T16:34:50.899Z,99859.63
2023-07-21T16:37:56.657Z,99855.97
2023-07-21T16:41:03.658Z,99847.94
2023-07-21T16:44:06.945Z,99844.81
2023-07-21T16:47:09.763Z,99843.72
2023-07-21T16:50:13.234Z,99857.81
2023-07-21T16:53:16.395Z,99854.34
2023-07-21T16:56:19.244Z,99857.84
2023-07-21T16:59:24.082Z,99869.91
2023-07-21T17:02:27.725Z,99872.63
2023-07-21T17:05:33.329Z,99879.78
2023-07-21T17:08:38.051Z,99872.59
2023-07-21T17:11:46.962Z,99860.81
2023-07-21T17:14:49.740Z,99860.56
2023-07-21T17:17:55.373Z,99836.84
2023-07-21T17:20:58.182Z,99808.16
2023-07-21T17:24:01.412Z,99798.38
2023-07-21T17:27:06.765Z,99805.19
2023-07-21T17:30:10.122Z,99813.75
2023-07-21T17:33:16.057Z,99821.94
2023-07-21T17:36:19.313Z,99811.81
2023-07-21T17:39:22.179Z,99806.59
2023-07-21T17:42:26.478Z,99781.41
2023-07-21T17:45:29.374Z,99768.78
2023-07-21T17:48:32.442Z,99761.75
2023-07-21T17:51:38.041Z,99761.28
2023-07-21T17:54:41.059Z,99767.22
2023-07-21T17:57:44.102Z,99762.69
2023-07-21T18:00:46.889Z,99766.19
2023-07-21T18:03:54.270Z,99756.97
2023-07-21T18:06:57.793Z,99773.97
2023-07-21T18:10:00.858Z,99785.19
2023-07-21T18:13:04.629Z,99782.00
2023-07-21T18:16:14.306Z,99791.25
2023-07-21T18:19:18.523Z,99795.16
2023-07-21T18:22:21.495Z,99791.25
2023-07-21T18:25:24.181Z,99787.78
2023-07-21T18:28:26.985Z,99777.00
2023-07-21T18:31:36.122Z,99765.69
2023-07-21T18:34:39.249Z,99755.31
2023-07-21T18:37:41.928Z,99757.72
2023-07-21T18:40:44.775Z,99755.81
2023-07-21T18:43:51.606Z,99765.91
2023-07-21T18:46:54.854Z,99756.97
2023-07-21T18:50:02.471Z,99768.63
2023-07-21T18:53:07.317Z,99769.34
2023-07-21T18:56:10.649Z,99774.03
2023-07-21T18:59:13.302Z,99789.91
2023-07-21T19:02:16.687Z,99787.16
2023-07-21T19:05:19.581Z,99786.84
2023-07-21T19:08:25.159Z,99787.22
2023-07-21T19:11:28.014Z,99790.75
2023-07-21T19:14:31.246Z,99782.69
2023-07-21T19:17:33.810Z,99774.50
2023-07-21T19:20:41.003Z,99778.75
2023-07-21T19:23:44.178Z,99782.66
2023-07-21T19:26:49.907Z,99781.16
2023-07-21T19:29:52.371Z,99790.03
2023-07-21T19:32:55.641Z,99780.41
2023-07-21T19:35:58.537Z,99786.59
2023-07-21T19:39:01.068Z,99783.88
2023-07-21T19:42:11.088Z,99786.59
2023-07-21T19:45:13.940Z,99800.88
2023-07-21T19:48:16.615Z,99811.72
2023-07-21T19:51:20.140Z,99830.59
2023-07-21T19:54:22.733Z,99842.13
2023-07-21T19:57:42.084Z,99859.25
2023-07-21T20:00:46.121Z,99874.41
2023-07-21T20:03:50.378Z,99883.28
2023-07-21T20:06:53.206Z,99879.09
2023-07-21T20:09:55.771Z,99896.84
2023-07-21T20:12:59.271Z,99928.03
2023-07-21T20:16:02.355Z,99935.16
2023-07-21T20:19:05.646Z,99939.41
2023-07-21T20:22:09.078Z,99949.84
2023-07-21T20:25:12.952Z,99955.91
2023-07-21T20:28:17.818Z,99980.06
2023-07-21T20:31:20.558Z,99967.91
2023-07-21T20:34:23.790Z,99956.28
2023-07-21T20:37:26.558Z,99953.59
2023-07-21T20:40:29.159Z,99954.81
2023-07-21T20:43:31.827Z,99957.16
2023-07-21T20:46:34.896Z,99958.50
2023-07-21T20:49:37.956Z,99962.03
2023-07-21T20:52:40.958Z,99954.81
2023-07-21T20:55:43.408Z,99961.00
2023-07-21T20:58:46.447Z,99955.25
2023-07-21T21:01:48.960Z,99943.25
2023-07-21T21:04:51.896Z,99940.56
2023-07-21T21:07:54.705Z,99935.94
2023-07-21T21:10:57.936Z,99930.47
2023-07-21T21:14:01.264Z,99911.19
2023-07-21T21:17:04.143Z,99902.72
2023-07-21T21:20:07.512Z,99903.88
2023-07-21T21:23:11.763Z,99901.88
2023-07-21T21:26:17.688Z,99893.75
2023-07-21T21:29:21.193Z,99896.50
2023-07-21T21:32:23.743Z,99908.06
2023-07-21T21:35:29.108Z,99911.16
2023-07-21T21:38:31.981Z,99923.53
2023-07-21T21:41:34.660Z,99915.84
2023-07-21T21:44:37.383Z,99918.50
2023-07-21T21:47:40.144Z,99912.69
2023-07-21T21:50:42.987Z,99910.00
2023-07-21T21:53:45.633Z,99913.13
2023-07-21T21:56:48.068Z,99905.00
2023-07-21T21:59:52.737Z,99902.72
2023-07-21T22:02:55.434Z,99915.72
2023-07-21T22:05:59.172Z,99927.22
2023-07-21T22:09:05.297Z,99935.34
2023-07-21T22:12:10.179Z,99935.69
2023-07-21T22:15:12.870Z,99940.28
2023-07-21T22:18:16.092Z,99929.53
2023-07-21T22:21:18.805Z,99925.53
2023-07-21T22:24:22.317Z,99923.69
2023-07-21T22:27:25.043Z,99932.50
2023-07-21T22:30:35.112Z,99924.38
2023-07-21T22:33:44.043Z,99915.97
2023-07-21T22:36:47.329Z,99926.34
2023-07-21T22:39:49.891Z,99912.13
2023-07-21T22:42:52.758Z,99913.69
2023-07-21T22:45:55.615Z,99906.03
2023-07-21T22:49:00.601Z,99914.13
2023-07-21T22:52:04.347Z,99907.59
2023-07-21T22:55:09.158Z,99911.84
2023-07-21T22:58:13.315Z,99915.00
2023-07-21T23:01:15.927Z,99922.34
2023-07-21T23:04:18.727Z,99918.47
2023-07-21T23:07:21.374Z,99912.69
2023-07-21T23:10:24.194Z,99906.41
2023-07-21T23:13:27.011Z,99902.97
2023-07-21T23:16:34.451Z,99904.50
2023-07-21T23:19:40.936Z,99912.22
2023-07-21T23:22:43.678Z,99913.66
2023-07-21T23:25:51.980Z,99921.00
2023-07-21T23:28:57.750Z,99907.38
2023-07-21T23:32:01.821Z,99900.47
2023-07-21T23:35:04.614Z,99917.53
2023-07-21T23:38:07.661Z,99931.31
2023-07-21T23:41:10.345Z,99936.56
2023-07-21T23:44:13.308Z,99927.44
2023-07-21T23:47:16.221Z,99920.00
2023-07-21T23:50:19.122Z,99905.84
2023-07-21T23:53:23.846Z,99908.59
2023-07-21T23:56:27.174Z,99898.06
2023-07-21T23:59:29.848Z,99902.25
